createdAt,value
2022-10-18T00:02:25.798Z,101062.13
2022-10-18T00:04:52.372Z,101064.66
2022-10-18T00:07:18.986Z,101063.75
2022-10-18T00:09:45.977Z,101070.59
2022-10-18T00:12:12.625Z,101080.91
2022-10-18T00:14:39.266Z,101080.88
2022-10-18T00:17:05.860Z,101078.22
2022-10-18T00:19:32.813Z,101083.34
2022-10-18T00:21:59.394Z,101080.66
2022-10-18T00:24:26.190Z,101082.38
2022-10-18T00:26:52.741Z,101085.78
2022-10-18T00:29:19.347Z,101078.88
2022-10-18T00:31:46.141Z,101076.28
2022-10-18T00:34:15.699Z,101077.13
2022-10-18T00:36:43.763Z,101075.41
2022-10-18T00:39:16.648Z,101078.81
2022-10-18T00:41:43.949Z,101070.22
2022-10-18T00:46:48.804Z,101071.97
2022-10-18T00:49:21.054Z,101073.63
2022-10-18T00:51:53.593Z,101074.50
2022-10-18T00:54:20.948Z,101078.75
2022-10-18T00:56:47.726Z,101077.03
2022-10-18T00:59:16.059Z,101072.69
2022-10-18T01:01:43.246Z,101076.97
2022-10-18T01:04:10.099Z,101089.00
2022-10-18T01:17:27.514Z,101114.53
2022-10-18T01:20:34.064Z,101119.53
2022-10-18T01:23:09.300Z,101116.06
2022-10-18T01:25:48.222Z,101122.94
2022-10-18T01:31:21.512Z,101128.88
2022-10-18T01:34:09.542Z,101133.06
2022-10-18T01:36:40.640Z,101146.91
2022-10-18T01:39:12.503Z,101142.59
2022-10-18T01:41:43.373Z,101143.44
2022-10-18T01:44:18.594Z,101136.53
2022-10-18T01:46:47.042Z,101137.34
2022-10-18T01:49:14.052Z,101148.53
2022-10-18T01:51:40.689Z,101145.06
2022-10-18T01:54:07.334Z,101139.84
2022-10-18T02:04:54.406Z,101156.81
2022-10-18T02:10:08.283Z,101156.56
2022-10-18T02:12:37.180Z,101165.97
2022-10-18T02:15:06.115Z,101168.47
2022-10-18T02:17:33.444Z,101164.03
2022-10-18T02:20:02.501Z,101164.00
2022-10-18T02:22:33.048Z,101169.91
2022-10-18T02:25:05.682Z,101170.63
2022-10-18T02:27:32.477Z,101167.94
2022-10-18T02:29:59.182Z,101175.59
2022-10-18T02:35:25.187Z,101168.47
2022-10-18T02:37:54.006Z,101174.44
2022-10-18T02:40:21.063Z,101172.63
2022-10-18T02:42:50.690Z,101170.88
2022-10-18T02:45:17.700Z,101169.09
2022-10-18T02:47:44.600Z,101181.94
2022-10-18T02:50:11.474Z,101180.19
2022-10-18T02:52:38.211Z,101180.97
2022-10-18T02:55:06.010Z,101181.75
2022-10-18T02:57:32.863Z,101185.97
2022-10-18T02:59:59.900Z,101187.63
2022-10-18T03:02:26.616Z,101173.84
2022-10-18T03:04:53.209Z,101175.50
2022-10-18T03:07:19.712Z,101178.91
2022-10-18T03:09:46.294Z,101177.22
2022-10-18T03:12:12.915Z,101171.19
2022-10-18T03:14:39.464Z,101180.66
2022-10-18T03:17:06.110Z,101183.22
2022-10-18T03:19:32.774Z,101180.66
2022-10-18T03:21:59.309Z,101190.13
2022-10-18T03:24:26.052Z,101178.06
2022-10-18T03:26:52.743Z,101171.97
2022-10-18T03:29:19.334Z,101174.56
2022-10-18T03:31:45.995Z,101171.94
2022-10-18T03:34:12.616Z,101177.09
2022-10-18T03:36:41.385Z,101171.03
2022-10-18T03:39:08.014Z,101174.38
2022-10-18T03:41:34.569Z,101180.31
2022-10-18T03:44:01.090Z,101173.38
2022-10-18T03:46:27.674Z,101188.75
2022-10-18T03:48:54.270Z,101183.59
2022-10-18T03:51:20.892Z,101187.84
2022-10-18T03:53:47.477Z,101179.16
2022-10-18T03:56:14.483Z,101194.53
2022-10-18T03:58:41.020Z,101193.59
2022-10-18T04:01:07.573Z,101196.09
2022-10-18T04:03:34.141Z,101186.59
2022-10-18T04:06:00.976Z,101184.88
2022-10-18T04:08:27.538Z,101197.81
2022-10-18T04:10:54.158Z,101196.09
2022-10-18T04:13:20.764Z,101193.50
2022-10-18T04:15:47.292Z,101202.94
2022-10-18T04:18:13.878Z,101209.78
2022-10-18T04:20:40.616Z,101214.88
2022-10-18T04:23:07.451Z,101220.88
2022-10-18T04:25:34.128Z,101212.22
2022-10-18T04:28:00.831Z,101205.31
2022-10-18T04:30:27.534Z,101213.09
2022-10-18T04:32:54.142Z,101217.47
2022-10-18T04:35:24.609Z,101214.94
2022-10-18T04:37:51.294Z,101217.56
2022-10-18T04:40:18.014Z,101216.66
2022-10-18T04:42:44.630Z,101208.88
2022-10-18T04:45:11.313Z,101217.47
2022-10-18T04:47:37.874Z,101212.31
2022-10-18T04:50:05.265Z,101211.41
2022-10-18T04:52:31.868Z,101226.03
2022-10-18T04:54:58.441Z,101215.72
2022-10-18T04:57:25.060Z,101215.72
2022-10-18T04:59:51.587Z,101208.88
2022-10-18T05:02:18.436Z,101213.16
2022-10-18T05:04:44.997Z,101222.63
2022-10-18T05:07:11.604Z,101225.16
2022-10-18T05:09:38.176Z,101223.41
2022-10-18T05:12:05.005Z,101225.06
2022-10-18T05:14:31.634Z,101222.44
2022-10-18T05:16:58.156Z,101231.03
2022-10-18T05:19:24.823Z,101226.69
2022-10-18T05:21:51.483Z,101230.94
2022-10-18T05:24:18.147Z,101221.44
2022-10-18T05:26:44.894Z,101222.38
2022-10-18T05:29:11.730Z,101227.53
2022-10-18T05:31:38.547Z,101225.84
2022-10-18T05:34:05.174Z,101227.59
2022-10-18T05:36:31.770Z,101226.75
2022-10-18T05:39:01.009Z,101234.53
2022-10-18T05:41:31.292Z,101228.56
2022-10-18T05:43:58.209Z,101239.78
2022-10-18T05:46:25.385Z,101244.16
2022-10-18T05:48:52.127Z,101241.53
2022-10-18T05:51:19.068Z,101236.38
2022-10-18T05:53:45.893Z,101243.16
2022-10-18T05:56:12.513Z,101237.91
2022-10-18T05:58:39.854Z,101241.34
2022-10-18T06:01:07.322Z,101242.13
2022-10-18T06:03:34.389Z,101248.06
2022-10-18T06:06:07.170Z,101241.09
2022-10-18T06:08:34.422Z,101237.47
2022-10-18T06:11:07.609Z,101244.25
2022-10-18T06:13:34.356Z,101244.25
2022-10-18T06:16:00.990Z,101250.31
2022-10-18T06:18:27.549Z,101256.28
2022-10-18T06:20:58.847Z,101254.53
2022-10-18T06:23:28.021Z,101262.22
2022-10-18T06:25:59.161Z,101263.00
2022-10-18T06:28:26.198Z,101266.41
2022-10-18T06:30:52.790Z,101270.63
2022-10-18T06:33:19.339Z,101267.97
2022-10-18T06:35:55.218Z,101263.66
2022-10-18T06:38:21.948Z,101267.97
2022-10-18T06:40:48.818Z,101270.53
2022-10-18T06:43:21.096Z,101271.28
2022-10-18T06:45:48.584Z,101285.53
2022-10-18T06:48:15.841Z,101279.16
2022-10-18T06:50:42.995Z,101280.63
2022-10-18T06:53:09.775Z,101277.94
2022-10-18T06:55:36.596Z,101282.09
2022-10-18T06:58:03.260Z,101282.00
2022-10-18T07:00:30.141Z,101291.44
2022-10-18T07:02:58.296Z,101294.94
2022-10-18T07:05:25.082Z,101295.03
2022-10-18T07:07:54.304Z,101290.75
2022-10-18T07:10:23.850Z,101296.00
2022-10-18T07:12:53.448Z,101301.16
2022-10-18T07:15:24.243Z,101305.34
2022-10-18T07:17:50.928Z,101314.00
2022-10-18T07:20:17.566Z,101312.38
2022-10-18T07:22:44.721Z,101309.03
2022-10-18T07:25:11.934Z,101306.59
2022-10-18T07:27:40.873Z,101304.22
2022-10-18T07:30:09.832Z,101323.38
2022-10-18T07:32:36.797Z,101331.25
2022-10-18T07:35:04.255Z,101324.59
2022-10-18T07:37:31.816Z,101322.22
2022-10-18T07:39:58.562Z,101316.25
2022-10-18T07:42:25.933Z,101323.44
2022-10-18T07:44:52.556Z,101332.69
2022-10-18T07:47:19.300Z,101337.41
2022-10-18T07:49:45.982Z,101342.66
2022-10-18T07:52:12.615Z,101352.22
2022-10-18T07:54:39.237Z,101350.75
2022-10-18T07:57:05.863Z,101357.88
2022-10-18T07:59:32.478Z,101363.31
2022-10-18T08:01:59.252Z,101376.72
2022-10-18T08:04:25.862Z,101379.56
2022-10-18T08:06:52.457Z,101383.34
2022-10-18T08:09:19.030Z,101385.38
2022-10-18T08:11:45.662Z,101386.66
2022-10-18T08:14:12.196Z,101396.84
2022-10-18T08:16:38.792Z,101397.03
2022-10-18T08:19:05.492Z,101399.63
2022-10-18T08:21:32.242Z,101406.09
2022-10-18T08:23:58.862Z,101415.88
2022-10-18T08:26:25.404Z,101426.44
2022-10-18T08:28:58.379Z,101429.16
2022-10-18T08:31:36.539Z,101425.88
2022-10-18T08:34:03.297Z,101424.50
2022-10-18T08:36:29.865Z,101431.00
2022-10-18T08:38:56.439Z,101441.47
2022-10-18T08:44:21.112Z,101442.06
2022-10-18T08:46:51.989Z,101433.47
2022-10-18T08:49:26.741Z,101427.03
2022-10-18T08:51:54.099Z,101437.78
2022-10-18T08:57:01.565Z,101439.16
2022-10-18T08:59:38.074Z,101442.03
2022-10-18T09:02:35.305Z,101444.50
2022-10-18T09:13:57.026Z,101460.88
2022-10-18T09:22:04.962Z,101461.78
2022-10-18T09:27:16.577Z,101465.56
2022-10-18T09:35:24.427Z,101465.91
2022-10-18T09:37:55.856Z,101474.81
2022-10-18T09:40:28.233Z,101478.97
2022-10-18T09:45:35.240Z,101470.38
2022-10-18T09:48:24.073Z,101464.59
2022-10-18T09:56:17.122Z,101469.19
2022-10-18T10:01:25.394Z,101471.19
2022-10-18T10:03:53.085Z,101478.56
2022-10-18T10:11:40.332Z,101484.72
2022-10-18T10:14:13.183Z,101477.25
2022-10-18T10:16:49.269Z,101474.00
2022-10-18T10:19:21.116Z,101480.22
2022-10-18T10:21:50.484Z,101481.47
2022-10-18T10:24:25.065Z,101475.69
2022-10-18T10:27:16.876Z,101470.53
2022-10-18T10:32:24.348Z,101483.09
2022-10-18T10:34:51.762Z,101485.75
2022-10-18T10:37:36.625Z,101482.63
2022-10-18T10:40:19.066Z,101471.94
2022-10-18T10:45:39.170Z,101484.53
2022-10-18T10:48:16.757Z,101473.84
2022-10-18T10:50:55.458Z,101472.50
2022-10-18T10:53:44.379Z,101453.16
2022-10-18T10:56:20.501Z,101462.97
2022-10-18T10:58:47.975Z,101465.53
2022-10-18T11:01:32.871Z,101458.50
2022-10-18T11:04:02.865Z,101450.44
2022-10-18T11:06:53.866Z,101453.34
2022-10-18T11:09:28.927Z,101451.22
2022-10-18T11:12:03.915Z,101455.69
2022-10-18T11:14:37.730Z,101444.91
2022-10-18T11:22:26.171Z,101451.34
2022-10-18T11:24:52.600Z,101446.41
2022-10-18T11:30:35.034Z,101439.31
2022-10-18T11:33:38.257Z,101438.03
2022-10-18T11:39:21.259Z,101422.97
2022-10-18T11:53:33.536Z,101398.00
2022-10-18T11:56:30.691Z,101408.66
2022-10-18T11:59:27.092Z,101404.53
2022-10-18T12:04:49.030Z,101412.72
2022-10-18T12:07:33.332Z,101417.25
2022-10-18T12:10:01.621Z,101411.25
2022-10-18T12:12:32.861Z,101407.88
2022-10-18T12:15:03.889Z,101407.09
2022-10-18T12:20:14.707Z,101409.91
2022-10-18T12:25:25.207Z,101400.53
2022-10-18T12:33:28.313Z,101384.84
2022-10-18T12:38:40.985Z,101381.63
2022-10-18T12:41:07.710Z,101385.19
2022-10-18T12:43:38.591Z,101382.63
2022-10-18T12:46:13.109Z,101377.50
2022-10-18T12:48:45.663Z,101387.16
2022-10-18T13:09:44.581Z,101394.56
2022-10-18T13:15:27.715Z,101380.22
2022-10-18T13:20:42.140Z,101384.03
2022-10-18T13:26:12.903Z,101384.78
2022-10-18T13:37:05.362Z,101386.53
2022-10-18T13:39:33.129Z,101397.13
2022-10-18T13:44:39.886Z,101379.78
2022-10-18T13:50:22.239Z,101372.06
2022-10-18T14:04:17.631Z,101365.38
2022-10-18T14:06:46.930Z,101368.91
2022-10-18T14:09:40.183Z,101361.03
2022-10-18T14:12:49.958Z,101352.44
2022-10-18T14:15:23.931Z,101350.72
2022-10-18T14:17:59.128Z,101350.72
2022-10-18T14:20:30.254Z,101349.03
2022-10-18T14:23:23.071Z,101355.19
2022-10-18T14:25:49.846Z,101354.38
2022-10-18T14:28:21.706Z,101350.88
2022-10-18T14:33:43.044Z,101340.53
2022-10-18T14:36:15.645Z,101344.88
2022-10-18T14:39:01.408Z,101350.19
2022-10-18T14:47:13.074Z,101345.00
2022-10-18T14:49:44.818Z,101352.03
2022-10-18T14:52:16.299Z,101351.22
2022-10-18T14:54:43.369Z,101347.75
2022-10-18T14:57:19.319Z,101348.66
2022-10-18T14:59:51.911Z,101351.31
2022-10-18T15:02:24.196Z,101353.09
2022-10-18T15:05:04.838Z,101367.06
2022-10-18T15:07:32.740Z,101360.94
2022-10-18T15:10:02.724Z,101367.13
2022-10-18T15:12:40.901Z,101372.41
2022-10-18T15:15:21.980Z,101379.44
2022-10-18T15:17:49.497Z,101376.00
2022-10-18T15:20:25.172Z,101363.75
2022-10-18T15:22:52.942Z,101363.75
2022-10-18T15:25:30.856Z,101360.28
2022-10-18T15:28:00.152Z,101362.94
2022-10-18T15:30:41.025Z,101365.56
2022-10-18T15:33:10.048Z,101356.88
2022-10-18T15:35:38.857Z,101349.94
2022-10-18T15:38:32.747Z,101351.72
2022-10-18T15:40:59.441Z,101355.22
2022-10-18T15:46:06.735Z,101362.22
2022-10-18T15:48:38.657Z,101351.75
2022-10-18T15:51:23.971Z,101364.00
2022-10-18T15:53:53.947Z,101365.75
2022-10-18T15:56:38.313Z,101364.91
2022-10-18T15:59:20.390Z,101360.56
2022-10-18T16:01:47.102Z,101351.00
2022-10-18T16:04:24.415Z,101344.06
2022-10-18T16:06:51.245Z,101346.66
2022-10-18T16:09:19.746Z,101352.78
2022-10-18T16:11:47.298Z,101362.34
2022-10-18T16:14:13.936Z,101351.88
2022-10-18T16:16:40.611Z,101343.22
2022-10-18T16:19:08.067Z,101341.47
2022-10-18T16:21:37.065Z,101339.75
2022-10-18T16:24:04.011Z,101344.97
2022-10-18T16:26:31.104Z,101350.16
2022-10-18T16:28:59.104Z,101358.03
2022-10-18T16:31:29.726Z,101365.84
2022-10-18T16:33:56.820Z,101361.50
2022-10-18T16:36:27.103Z,101362.34
2022-10-18T16:38:55.121Z,101359.75
2022-10-18T16:41:22.650Z,101357.97
2022-10-18T16:43:50.478Z,101351.88
2022-10-18T16:48:51.937Z,101351.88
2022-10-18T16:51:18.733Z,101364.03
2022-10-18T16:53:45.955Z,101367.50
2022-10-18T16:56:17.768Z,101370.97
2022-10-18T16:58:45.262Z,101379.63
2022-10-18T17:01:14.186Z,101376.16
2022-10-18T17:03:41.181Z,101381.34
2022-10-18T17:06:15.510Z,101386.53
2022-10-18T17:08:42.261Z,101388.25
2022-10-18T17:11:10.585Z,101385.66
2022-10-18T17:13:37.461Z,101383.00
2022-10-18T17:16:04.667Z,101377.78
2022-10-18T17:18:31.610Z,101383.00
2022-10-18T17:21:02.671Z,101390.78
2022-10-18T17:23:30.705Z,101394.22
2022-10-18T17:26:05.442Z,101395.94
2022-10-18T17:28:41.729Z,101402.84
2022-10-18T17:31:08.436Z,101405.41
2022-10-18T17:33:35.515Z,101402.75
2022-10-18T17:36:02.298Z,101393.19
2022-10-18T17:38:28.930Z,101405.31
2022-10-18T17:40:55.525Z,101412.16
2022-10-18T17:43:22.147Z,101412.13
2022-10-18T17:45:51.011Z,101412.09
2022-10-18T17:48:17.896Z,101407.75
2022-10-18T17:50:44.878Z,101410.31
2022-10-18T17:53:13.104Z,101414.63
2022-10-18T17:55:40.404Z,101419.81
2022-10-18T17:58:07.012Z,101416.31
2022-10-18T18:00:33.686Z,101408.47
2022-10-18T18:03:01.077Z,101406.69
2022-10-18T18:05:33.349Z,101406.63
2022-10-18T18:08:03.809Z,101404.84
2022-10-18T18:10:33.682Z,101411.72
2022-10-18T18:13:01.309Z,101411.69
2022-10-18T18:15:28.053Z,101408.19
2022-10-18T18:17:58.323Z,101411.56
2022-10-18T18:20:26.028Z,101420.22
2022-10-18T18:22:52.707Z,101414.94
2022-10-18T18:25:19.373Z,101418.34
2022-10-18T18:27:46.046Z,101409.66
2022-10-18T18:30:12.940Z,101411.34
2022-10-18T18:32:39.531Z,101407.75
2022-10-18T18:35:06.333Z,101418.94
2022-10-18T18:37:32.868Z,101415.38
2022-10-18T18:39:59.417Z,101411.03
2022-10-18T18:42:25.971Z,101420.53
2022-10-18T18:44:52.577Z,101414.34
2022-10-18T18:47:21.753Z,101418.66
2022-10-18T18:49:48.834Z,101414.28
2022-10-18T18:52:15.698Z,101426.38
2022-10-18T18:54:42.254Z,101429.72
2022-10-18T18:57:08.874Z,101414.03
2022-10-18T18:59:35.551Z,101414.84
2022-10-18T19:02:02.104Z,101425.19
2022-10-18T19:04:29.190Z,101429.47
2022-10-18T19:06:55.810Z,101428.50
2022-10-18T19:09:22.942Z,101428.47
2022-10-18T19:11:53.051Z,101433.66
2022-10-18T19:19:24.274Z,101417.88
2022-10-18T19:24:30.260Z,101427.25
2022-10-18T19:27:00.965Z,101436.69
2022-10-18T19:29:30.447Z,101421.94
2022-10-18T19:32:00.046Z,101432.25
2022-10-18T19:34:29.070Z,101427.03
2022-10-18T19:36:56.398Z,101427.00
2022-10-18T19:39:25.558Z,101423.47
2022-10-18T19:41:55.291Z,101421.63
2022-10-18T19:44:23.807Z,101411.19
2022-10-18T19:46:51.229Z,101411.13
2022-10-18T19:49:17.943Z,101415.41
2022-10-18T19:51:44.905Z,101407.56
2022-10-18T19:54:12.545Z,101412.72
2022-10-18T19:56:39.504Z,101408.31
2022-10-18T19:59:06.050Z,101403.91
2022-10-18T20:01:32.860Z,101405.56
2022-10-18T20:03:59.620Z,101410.69
2022-10-18T20:06:26.571Z,101401.97
2022-10-18T20:08:53.339Z,101397.56
2022-10-18T20:11:23.386Z,101396.66
2022-10-18T20:13:50.420Z,101401.50
2022-10-18T20:16:20.639Z,101381.78
2022-10-18T20:18:48.969Z,101380.88
2022-10-18T20:21:17.103Z,101383.41
2022-10-18T20:23:44.578Z,101392.88
2022-10-18T20:26:20.511Z,101396.28
2022-10-18T20:28:56.687Z,101398.81
2022-10-18T20:31:26.222Z,101406.50
2022-10-18T20:33:58.736Z,101406.41
2022-10-18T20:36:26.280Z,101408.94
2022-10-18T20:38:53.624Z,101409.78
2022-10-18T20:41:22.890Z,101407.19
2022-10-18T20:43:55.787Z,101416.66
2022-10-18T20:46:22.529Z,101417.47
2022-10-18T20:48:50.377Z,101420.06
2022-10-18T20:51:17.386Z,101424.38
2022-10-18T20:53:44.224Z,101415.69
2022-10-18T20:56:14.095Z,101415.72
2022-10-18T20:58:42.657Z,101409.59
2022-10-18T21:01:12.602Z,101416.47
2022-10-18T21:03:41.758Z,101406.06
2022-10-18T21:06:10.517Z,101406.00
2022-10-18T21:08:38.002Z,101408.59
2022-10-18T21:11:05.703Z,101412.84
2022-10-18T21:13:32.892Z,101418.88
2022-10-18T21:16:01.405Z,101421.47
2022-10-18T21:18:30.134Z,101415.41
2022-10-18T21:21:08.975Z,101409.28
2022-10-18T21:23:35.628Z,101421.38
2022-10-18T21:26:02.162Z,101423.09
2022-10-18T21:28:28.896Z,101415.31
2022-10-18T21:30:57.791Z,101418.75
2022-10-18T21:33:24.398Z,101411.03
2022-10-18T21:35:50.933Z,101407.59
2022-10-18T21:38:17.529Z,101405.91
2022-10-18T21:40:44.706Z,101397.31
2022-10-18T21:43:11.883Z,101396.44
2022-10-18T21:45:38.379Z,101405.06
2022-10-18T21:48:05.238Z,101396.50
2022-10-18T21:50:34.188Z,101401.75
2022-10-18T21:53:00.847Z,101399.13
2022-10-18T21:55:27.421Z,101388.69
2022-10-18T21:57:54.009Z,101380.91
2022-10-18T22:00:20.595Z,101382.63
2022-10-18T22:02:47.225Z,101378.28
2022-10-18T22:05:13.810Z,101379.06
2022-10-18T22:07:40.396Z,101380.81
2022-10-18T22:10:07.344Z,101378.22
2022-10-18T22:12:33.965Z,101382.47
2022-10-18T22:15:02.449Z,101375.59
2022-10-18T22:17:28.993Z,101362.69
2022-10-18T22:19:55.527Z,101360.94
2022-10-18T22:22:23.553Z,101359.25
2022-10-18T22:24:50.214Z,101353.19
2022-10-18T22:27:16.887Z,101338.53
2022-10-18T22:29:43.442Z,101351.47
2022-10-18T22:32:10.061Z,101340.25
2022-10-18T22:34:36.902Z,101336.81
2022-10-18T22:37:03.536Z,101338.56
2022-10-18T22:39:30.101Z,101337.69
2022-10-18T22:41:57.382Z,101335.16
2022-10-18T22:44:24.414Z,101335.16
2022-10-18T22:46:50.977Z,101321.38
2022-10-18T22:49:17.655Z,101316.19
2022-10-18T22:51:44.353Z,101312.78
2022-10-18T22:54:11.065Z,101317.06
2022-10-18T22:56:37.695Z,101316.19
2022-10-18T22:59:04.445Z,101317.94
2022-10-18T23:01:30.981Z,101320.53
2022-10-18T23:03:59.924Z,101323.94
2022-10-18T23:06:31.672Z,101328.31
2022-10-18T23:08:59.818Z,101320.56
2022-10-18T23:11:27.637Z,101328.34
2022-10-18T23:13:54.552Z,101333.50
2022-10-18T23:16:21.414Z,101324.81
2022-10-18T23:18:51.578Z,101323.09
2022-10-18T23:21:19.150Z,101333.44
2022-10-18T23:23:45.970Z,101336.91
2022-10-18T23:26:15.261Z,101323.97
2022-10-18T23:28:44.558Z,101324.88
2022-10-18T23:31:14.665Z,101328.38
2022-10-18T23:33:41.422Z,101321.19
2022-10-18T23:36:09.162Z,101317.03
2022-10-18T23:38:36.830Z,101318.78
2022-10-18T23:41:04.478Z,101315.38
2022-10-18T23:43:31.420Z,101320.53
2022-10-18T23:45:58.020Z,101329.19
2022-10-18T23:48:24.705Z,101327.47
2022-10-18T23:50:51.564Z,101322.28
2022-10-18T23:53:20.255Z,101313.59
2022-10-18T23:55:52.157Z,101322.16
2022-10-18T23:58:18.825Z,101317.81
